sensor_id;sensor_type;location;lat;lon;timestamp;P1;durP1;ratioP1;P2;durP2;ratioP2
24301;SDS011;12421;49.732;20.078;2023-03-01T00:01:23;76.30;;;36.60;;
24301;SDS011;12421;49.732;20.078;2023-03-01T00:21:33;76.20;;;37.50;;
24301;SDS011;12421;49.732;20.078;2023-03-01T00:31:37;73.80;;;32.50;;
24301;SDS011;12421;49.732;20.078;2023-03-01T00:41:41;79.40;;;37.50;;
24301;SDS011;12421;49.732;20.078;2023-03-01T00:51:45;52.60;;;29.00;;
24301;SDS011;12421;49.732;20.078;2023-03-01T01:01:48;65.20;;;32.60;;
24301;SDS011;12421;49.732;20.078;2023-03-01T01:11:52;60.70;;;30.20;;
24301;SDS011;12421;49.732;20.078;2023-03-01T01:21:55;58.00;;;31.10;;
24301;SDS011;12421;49.732;20.078;2023-03-01T01:31:58;66.00;;;34.00;;
24301;SDS011;12421;49.732;20.078;2023-03-01T01:42:02;63.20;;;31.80;;
24301;SDS011;12421;49.732;20.078;2023-03-01T02:02:23;54.50;;;27.10;;
24301;SDS011;12421;49.732;20.078;2023-03-01T02:12:28;46.30;;;24.90;;
24301;SDS011;12421;49.732;20.078;2023-03-01T02:22:32;54.00;;;26.20;;
24301;SDS011;12421;49.732;20.078;2023-03-01T02:32:40;51.00;;;27.00;;
24301;SDS011;12421;49.732;20.078;2023-03-01T02:42:47;50.70;;;26.60;;
24301;SDS011;12421;49.732;20.078;2023-03-01T03:03:08;54.40;;;25.70;;
24301;SDS011;12421;49.732;20.078;2023-03-01T03:13:14;57.50;;;28.50;;
24301;SDS011;12421;49.732;20.078;2023-03-01T03:23:18;60.10;;;28.30;;
24301;SDS011;12421;49.732;20.078;2023-03-01T03:33:23;55.30;;;28.40;;
24301;SDS011;12421;49.732;20.078;2023-03-01T03:43:26;50.20;;;27.90;;
24301;SDS011;12421;49.732;20.078;2023-03-01T03:53:31;59.70;;;27.60;;
24301;SDS011;12421;49.732;20.078;2023-03-01T04:03:35;49.50;;;26.40;;
24301;SDS011;12421;49.732;20.078;2023-03-01T04:13:38;51.90;;;26.30;;
24301;SDS011;12421;49.732;20.078;2023-03-01T04:23:41;45.30;;;22.10;;
24301;SDS011;12421;49.732;20.078;2023-03-01T04:33:48;40.80;;;22.30;;
24301;SDS011;12421;49.732;20.078;2023-03-01T04:43:56;49.90;;;25.70;;
24301;SDS011;12421;49.732;20.078;2023-03-01T04:53:59;55.00;;;27.70;;
24301;SDS011;12421;49.732;20.078;2023-03-01T05:04:03;46.30;;;22.80;;
24301;SDS011;12421;49.732;20.078;2023-03-01T05:14:08;50.10;;;24.90;;
24301;SDS011;12421;49.732;20.078;2023-03-01T05:24:13;39.20;;;18.40;;
24301;SDS011;12421;49.732;20.078;2023-03-01T05:34:17;48.40;;;26.30;;
24301;SDS011;12421;49.732;20.078;2023-03-01T05:44:21;38.70;;;22.70;;
24301;SDS011;12421;49.732;20.078;2023-03-01T05:54:24;56.80;;;25.10;;
24301;SDS011;12421;49.732;20.078;2023-03-01T06:04:27;50.00;;;25.80;;
24301;SDS011;12421;49.732;20.078;2023-03-01T06:14:30;67.30;;;33.60;;
24301;SDS011;12421;49.732;20.078;2023-03-01T06:24:34;43.00;;;22.20;;
24301;SDS011;12421;49.732;20.078;2023-03-01T06:34:37;54.50;;;29.30;;
24301;SDS011;12421;49.732;20.078;2023-03-01T06:44:40;49.50;;;26.80;;
24301;SDS011;12421;49.732;20.078;2023-03-01T06:54:44;54.40;;;28.80;;
24301;SDS011;12421;49.732;20.078;2023-03-01T07:04:49;36.80;;;22.40;;
24301;SDS011;12421;49.732;20.078;2023-03-01T07:14:53;39.20;;;22.60;;
24301;SDS011;12421;49.732;20.078;2023-03-01T07:24:56;37.60;;;22.50;;
24301;SDS011;12421;49.732;20.078;2023-03-01T07:34:59;39.40;;;24.10;;
24301;SDS011;12421;49.732;20.078;2023-03-01T07:45:03;98.10;;;45.40;;
24301;SDS011;12421;49.732;20.078;2023-03-01T07:55:08;45.90;;;28.80;;
24301;SDS011;12421;49.732;20.078;2023-03-01T08:05:11;64.20;;;31.90;;
24301;SDS011;12421;49.732;20.078;2023-03-01T08:15:15;40.30;;;25.10;;
24301;SDS011;12421;49.732;20.078;2023-03-01T08:25:18;39.80;;;23.40;;
24301;SDS011;12421;49.732;20.078;2023-03-01T08:35:21;30.70;;;20.00;;
24301;SDS011;12421;49.732;20.078;2023-03-01T08:45:25;28.50;;;16.80;;
24301;SDS011;12421;49.732;20.078;2023-03-01T08:55:28;21.40;;;14.20;;
24301;SDS011;12421;49.732;20.078;2023-03-01T09:05:32;23.80;;;14.10;;
24301;SDS011;12421;49.732;20.078;2023-03-01T09:15:36;26.00;;;15.60;;
24301;SDS011;12421;49.732;20.078;2023-03-01T09:25:40;26.70;;;16.80;;
24301;SDS011;12421;49.732;20.078;2023-03-01T09:35:43;19.20;;;12.80;;
24301;SDS011;12421;49.732;20.078;2023-03-01T09:45:49;21.60;;;14.80;;
24301;SDS011;12421;49.732;20.078;2023-03-01T09:56:03;20.90;;;14.50;;
24301;SDS011;12421;49.732;20.078;2023-03-01T10:06:19;20.40;;;13.80;;
24301;SDS011;12421;49.732;20.078;2023-03-01T10:16:51;19.10;;;13.30;;
24301;SDS011;12421;49.732;20.078;2023-03-01T10:27:12;21.30;;;13.70;;
24301;SDS011;12421;49.732;20.078;2023-03-01T10:37:26;20.50;;;12.80;;
24301;SDS011;12421;49.732;20.078;2023-03-01T10:47:30;24.20;;;15.60;;
24301;SDS011;12421;49.732;20.078;2023-03-01T10:57:34;25.00;;;15.20;;
24301;SDS011;12421;49.732;20.078;2023-03-01T11:17:53;21.00;;;14.80;;
24301;SDS011;12421;49.732;20.078;2023-03-01T11:28:16;22.90;;;14.70;;
24301;SDS011;12421;49.732;20.078;2023-03-01T11:48:47;22.90;;;15.40;;
24301;SDS011;12421;49.732;20.078;2023-03-01T12:09:27;20.30;;;12.50;;
24301;SDS011;12421;49.732;20.078;2023-03-01T12:41:00;24.80;;;15.90;;
24301;SDS011;12421;49.732;20.078;2023-03-01T12:51:15;31.00;;;19.10;;
24301;SDS011;12421;49.732;20.078;2023-03-01T13:01:31;27.60;;;18.60;;
24301;SDS011;12421;49.732;20.078;2023-03-01T13:11:47;26.20;;;18.20;;
24301;SDS011;12421;49.732;20.078;2023-03-01T13:21:52;26.70;;;18.30;;
24301;SDS011;12421;49.732;20.078;2023-03-01T13:31:59;29.80;;;18.20;;
24301;SDS011;12421;49.732;20.078;2023-03-01T13:42:02;29.80;;;18.90;;
24301;SDS011;12421;49.732;20.078;2023-03-01T13:52:05;27.10;;;16.90;;
24301;SDS011;12421;49.732;20.078;2023-03-01T14:02:10;26.30;;;17.00;;
24301;SDS011;12421;49.732;20.078;2023-03-01T14:23:18;29.20;;;16.90;;
24301;SDS011;12421;49.732;20.078;2023-03-01T14:33:30;27.90;;;17.90;;
24301;SDS011;12421;49.732;20.078;2023-03-01T14:43:39;27.00;;;17.60;;
24301;SDS011;12421;49.732;20.078;2023-03-01T14:53:46;27.20;;;18.40;;
24301;SDS011;12421;49.732;20.078;2023-03-01T15:03:53;30.10;;;20.70;;
24301;SDS011;12421;49.732;20.078;2023-03-01T15:13:57;32.90;;;20.70;;
24301;SDS011;12421;49.732;20.078;2023-03-01T15:44:32;39.30;;;23.70;;
24301;SDS011;12421;49.732;20.078;2023-03-01T15:54:45;36.80;;;19.70;;
24301;SDS011;12421;49.732;20.078;2023-03-01T16:04:49;36.00;;;20.10;;
24301;SDS011;12421;49.732;20.078;2023-03-01T16:14:52;40.10;;;23.10;;
24301;SDS011;12421;49.732;20.078;2023-03-01T16:25:03;40.60;;;25.50;;
24301;SDS011;12421;49.732;20.078;2023-03-01T16:35:07;44.70;;;27.40;;
24301;SDS011;12421;49.732;20.078;2023-03-01T16:45:12;40.80;;;26.00;;
24301;SDS011;12421;49.732;20.078;2023-03-01T16:55:26;52.80;;;28.50;;
24301;SDS011;12421;49.732;20.078;2023-03-01T17:05:29;64.30;;;32.40;;
24301;SDS011;12421;49.732;20.078;2023-03-01T17:15:32;75.60;;;40.40;;
24301;SDS011;12421;49.732;20.078;2023-03-01T17:25:35;74.70;;;38.70;;
24301;SDS011;12421;49.732;20.078;2023-03-01T17:35:45;63.50;;;36.40;;
24301;SDS011;12421;49.732;20.078;2023-03-01T17:45:50;81.50;;;41.80;;
24301;SDS011;12421;49.732;20.078;2023-03-01T17:55:58;93.10;;;52.20;;
24301;SDS011;12421;49.732;20.078;2023-03-01T18:06:14;74.90;;;42.30;;
24301;SDS011;12421;49.732;20.078;2023-03-01T18:16:21;78.60;;;46.10;;
24301;SDS011;12421;49.732;20.078;2023-03-01T18:26:25;85.50;;;41.90;;
24301;SDS011;12421;49.732;20.078;2023-03-01T18:36:31;82.20;;;44.00;;
24301;SDS011;12421;49.732;20.078;2023-03-01T18:46:39;84.90;;;42.80;;
24301;SDS011;12421;49.732;20.078;2023-03-01T18:56:42;111.10;;;52.10;;
24301;SDS011;12421;49.732;20.078;2023-03-01T19:06:46;75.60;;;40.30;;
24301;SDS011;12421;49.732;20.078;2023-03-01T19:16:49;115.00;;;56.60;;
24301;SDS011;12421;49.732;20.078;2023-03-01T19:26:55;89.80;;;46.80;;
24301;SDS011;12421;49.732;20.078;2023-03-01T19:36:58;94.20;;;44.50;;
24301;SDS011;12421;49.732;20.078;2023-03-01T19:47:02;112.30;;;53.80;;
24301;SDS011;12421;49.732;20.078;2023-03-01T19:57:07;109.10;;;48.10;;
24301;SDS011;12421;49.732;20.078;2023-03-01T20:07:11;87.60;;;44.20;;
24301;SDS011;12421;49.732;20.078;2023-03-01T20:17:15;106.80;;;53.20;;
24301;SDS011;12421;49.732;20.078;2023-03-01T20:27:18;95.70;;;48.90;;
24301;SDS011;12421;49.732;20.078;2023-03-01T20:37:23;97.70;;;48.60;;
24301;SDS011;12421;49.732;20.078;2023-03-01T20:47:26;110.70;;;55.90;;
24301;SDS011;12421;49.732;20.078;2023-03-01T20:57:38;124.60;;;60.60;;
24301;SDS011;12421;49.732;20.078;2023-03-01T21:07:41;107.70;;;55.30;;
24301;SDS011;12421;49.732;20.078;2023-03-01T21:17:47;109.00;;;54.20;;
24301;SDS011;12421;49.732;20.078;2023-03-01T21:27:50;121.50;;;58.60;;
24301;SDS011;12421;49.732;20.078;2023-03-01T21:37:53;115.70;;;51.30;;
24301;SDS011;12421;49.732;20.078;2023-03-01T21:47:57;159.80;;;73.80;;
24301;SDS011;12421;49.732;20.078;2023-03-01T21:58:01;132.40;;;62.80;;
24301;SDS011;12421;49.732;20.078;2023-03-01T22:08:05;126.90;;;60.00;;
24301;SDS011;12421;49.732;20.078;2023-03-01T22:18:09;127.90;;;57.80;;
24301;SDS011;12421;49.732;20.078;2023-03-01T22:28:14;121.40;;;59.50;;
24301;SDS011;12421;49.732;20.078;2023-03-01T22:38:17;108.00;;;53.20;;
24301;SDS011;12421;49.732;20.078;2023-03-01T22:48:21;103.20;;;49.30;;
24301;SDS011;12421;49.732;20.078;2023-03-01T22:58:25;124.50;;;54.90;;
24301;SDS011;12421;49.732;20.078;2023-03-01T23:08:28;124.40;;;60.50;;
24301;SDS011;12421;49.732;20.078;2023-03-01T23:18:31;135.00;;;55.90;;
24301;SDS011;12421;49.732;20.078;2023-03-01T23:28:35;101.60;;;48.60;;
24301;SDS011;12421;49.732;20.078;2023-03-01T23:38:43;102.40;;;46.10;;
24301;SDS011;12421;49.732;20.078;2023-03-01T23:48:48;104.40;;;48.50;;
24301;SDS011;12421;49.732;20.078;2023-03-01T23:58:52;107.40;;;47.60;;
